sensor_id;sensor_type;location;lat;lon;timestamp;P1;durP1;ratioP1;P2;durP2;ratioP2
67585;SDS011;55785;47.946;20.540;2022-07-11T00:02:01;1.50;;;1.25;;
67585;SDS011;55785;47.946;20.540;2022-07-11T00:04:27;2.08;;;1.48;;
67585;SDS011;55785;47.946;20.540;2022-07-11T00:06:55;1.20;;;1.10;;
67585;SDS011;55785;47.946;20.540;2022-07-11T00:09:21;2.13;;;1.25;;
67585;SDS011;55785;47.946;20.540;2022-07-11T00:11:46;2.63;;;1.17;;
67585;SDS011;55785;47.946;20.540;2022-07-11T00:14:11;2.75;;;1.40;;
67585;SDS011;55785;47.946;20.540;2022-07-11T00:16:37;2.60;;;1.25;;
67585;SDS011;55785;47.946;20.540;2022-07-11T00:19:02;1.35;;;1.23;;
67585;SDS011;55785;47.946;20.540;2022-07-11T00:21:27;1.63;;;1.20;;
67585;SDS011;55785;47.946;20.540;2022-07-11T00:23:53;1.30;;;1.20;;
67585;SDS011;55785;47.946;20.540;2022-07-11T00:26:18;2.08;;;1.10;;
67585;SDS011;55785;47.946;20.540;2022-07-11T00:28:43;3.00;;;1.30;;
67585;SDS011;55785;47.946;20.540;2022-07-11T00:31:09;1.15;;;1.02;;
67585;SDS011;55785;47.946;20.540;2022-07-11T00:33:34;2.35;;;1.25;;
67585;SDS011;55785;47.946;20.540;2022-07-11T00:35:59;1.55;;;1.10;;
67585;SDS011;55785;47.946;20.540;2022-07-11T00:38:24;1.50;;;1.35;;
67585;SDS011;55785;47.946;20.540;2022-07-11T00:40:50;3.38;;;1.27;;
67585;SDS011;55785;47.946;20.540;2022-07-11T00:43:15;2.50;;;1.30;;
67585;SDS011;55785;47.946;20.540;2022-07-11T00:45:40;1.65;;;1.00;;
67585;SDS011;55785;47.946;20.540;2022-07-11T00:48:06;2.22;;;1.13;;
67585;SDS011;55785;47.946;20.540;2022-07-11T00:50:31;2.42;;;1.02;;
67585;SDS011;55785;47.946;20.540;2022-07-11T00:52:56;2.65;;;1.40;;
67585;SDS011;55785;47.946;20.540;2022-07-11T00:55:22;1.60;;;1.20;;
67585;SDS011;55785;47.946;20.540;2022-07-11T00:57:49;1.48;;;1.27;;
67585;SDS011;55785;47.946;20.540;2022-07-11T01:00:16;2.00;;;1.15;;
67585;SDS011;55785;47.946;20.540;2022-07-11T01:02:42;3.45;;;1.20;;
67585;SDS011;55785;47.946;20.540;2022-07-11T01:05:07;1.20;;;1.10;;
67585;SDS011;55785;47.946;20.540;2022-07-11T01:07:32;2.00;;;1.15;;
67585;SDS011;55785;47.946;20.540;2022-07-11T01:09:58;2.95;;;1.40;;
67585;SDS011;55785;47.946;20.540;2022-07-11T01:12:24;1.85;;;1.00;;
67585;SDS011;55785;47.946;20.540;2022-07-11T01:14:52;1.90;;;1.05;;
67585;SDS011;55785;47.946;20.540;2022-07-11T01:17:19;1.92;;;1.00;;
67585;SDS011;55785;47.946;20.540;2022-07-11T01:19:44;1.88;;;1.02;;
67585;SDS011;55785;47.946;20.540;2022-07-11T01:22:10;2.92;;;1.27;;
67585;SDS011;55785;47.946;20.540;2022-07-11T01:24:38;2.78;;;1.20;;
67585;SDS011;55785;47.946;20.540;2022-07-11T01:27:04;1.30;;;1.20;;
67585;SDS011;55785;47.946;20.540;2022-07-11T01:29:31;4.32;;;1.10;;
67585;SDS011;55785;47.946;20.540;2022-07-11T01:31:57;1.20;;;1.10;;
67585;SDS011;55785;47.946;20.540;2022-07-11T01:34:22;1.40;;;1.00;;
67585;SDS011;55785;47.946;20.540;2022-07-11T01:36:47;2.28;;;1.27;;
67585;SDS011;55785;47.946;20.540;2022-07-11T01:39:12;2.90;;;1.10;;
67585;SDS011;55785;47.946;20.540;2022-07-11T01:41:38;1.38;;;1.27;;
67585;SDS011;55785;47.946;20.540;2022-07-11T01:44:06;2.50;;;1.10;;
67585;SDS011;55785;47.946;20.540;2022-07-11T01:46:31;2.53;;;1.10;;
67585;SDS011;55785;47.946;20.540;2022-07-11T01:48:57;2.10;;;1.13;;
67585;SDS011;55785;47.946;20.540;2022-07-11T01:51:22;1.85;;;1.10;;
67585;SDS011;55785;47.946;20.540;2022-07-11T01:53:48;2.72;;;1.30;;
67585;SDS011;55785;47.946;20.540;2022-07-11T01:56:13;2.45;;;1.20;;
67585;SDS011;55785;47.946;20.540;2022-07-11T01:58:39;1.10;;;1.00;;
67585;SDS011;55785;47.946;20.540;2022-07-11T02:01:04;1.95;;;1.00;;
67585;SDS011;55785;47.946;20.540;2022-07-11T02:03:29;1.10;;;1.00;;
67585;SDS011;55785;47.946;20.540;2022-07-11T02:05:54;1.85;;;1.15;;
67585;SDS011;55785;47.946;20.540;2022-07-11T02:08:20;1.85;;;0.93;;
67585;SDS011;55785;47.946;20.540;2022-07-11T02:10:46;1.20;;;0.98;;
67585;SDS011;55785;47.946;20.540;2022-07-11T02:13:14;3.53;;;1.23;;
67585;SDS011;55785;47.946;20.540;2022-07-11T02:15:44;1.00;;;0.90;;
67585;SDS011;55785;47.946;20.540;2022-07-11T02:18:10;1.30;;;0.93;;
67585;SDS011;55785;47.946;20.540;2022-07-11T02:20:37;1.42;;;1.20;;
67585;SDS011;55785;47.946;20.540;2022-07-11T02:23:04;1.33;;;1.02;;
67585;SDS011;55785;47.946;20.540;2022-07-11T02:25:29;1.35;;;1.10;;
67585;SDS011;55785;47.946;20.540;2022-07-11T02:27:55;4.05;;;1.08;;
67585;SDS011;55785;47.946;20.540;2022-07-11T02:30:21;1.98;;;1.10;;
67585;SDS011;55785;47.946;20.540;2022-07-11T02:32:46;1.77;;;0.90;;
67585;SDS011;55785;47.946;20.540;2022-07-11T02:35:12;2.20;;;1.13;;
67585;SDS011;55785;47.946;20.540;2022-07-11T02:37:38;1.75;;;1.10;;
67585;SDS011;55785;47.946;20.540;2022-07-11T02:40:03;2.22;;;1.10;;
67585;SDS011;55785;47.946;20.540;2022-07-11T02:42:29;1.85;;;1.00;;
67585;SDS011;55785;47.946;20.540;2022-07-11T02:44:54;1.63;;;1.02;;
67585;SDS011;55785;47.946;20.540;2022-07-11T02:47:19;3.75;;;1.30;;
67585;SDS011;55785;47.946;20.540;2022-07-11T02:49:45;2.78;;;1.08;;
67585;SDS011;55785;47.946;20.540;2022-07-11T02:52:10;1.13;;;1.00;;
67585;SDS011;55785;47.946;20.540;2022-07-11T02:54:35;5.45;;;1.30;;
67585;SDS011;55785;47.946;20.540;2022-07-11T02:57:01;2.15;;;1.08;;
67585;SDS011;55785;47.946;20.540;2022-07-11T02:59:26;2.55;;;1.10;;
67585;SDS011;55785;47.946;20.540;2022-07-11T03:01:52;2.90;;;1.08;;
67585;SDS011;55785;47.946;20.540;2022-07-11T03:04:17;1.63;;;1.13;;
67585;SDS011;55785;47.946;20.540;2022-07-11T03:06:43;1.83;;;1.25;;
67585;SDS011;55785;47.946;20.540;2022-07-11T03:09:08;1.25;;;1.10;;
67585;SDS011;55785;47.946;20.540;2022-07-11T03:11:34;2.63;;;1.08;;
67585;SDS011;55785;47.946;20.540;2022-07-11T03:14:00;3.22;;;1.20;;
67585;SDS011;55785;47.946;20.540;2022-07-11T03:16:27;3.08;;;1.02;;
67585;SDS011;55785;47.946;20.540;2022-07-11T03:18:53;1.10;;;0.90;;
67585;SDS011;55785;47.946;20.540;2022-07-11T03:21:19;1.77;;;1.20;;
67585;SDS011;55785;47.946;20.540;2022-07-11T03:23:44;1.10;;;1.00;;
67585;SDS011;55785;47.946;20.540;2022-07-11T03:26:09;1.50;;;1.13;;
67585;SDS011;55785;47.946;20.540;2022-07-11T03:28:35;1.25;;;1.08;;
67585;SDS011;55785;47.946;20.540;2022-07-11T03:31:00;2.45;;;1.00;;
67585;SDS011;55785;47.946;20.540;2022-07-11T03:33:25;2.30;;;1.15;;
67585;SDS011;55785;47.946;20.540;2022-07-11T03:35:51;3.17;;;1.30;;
67585;SDS011;55785;47.946;20.540;2022-07-11T03:38:19;1.73;;;1.02;;
67585;SDS011;55785;47.946;20.540;2022-07-11T03:40:45;1.27;;;1.00;;
67585;SDS011;55785;47.946;20.540;2022-07-11T03:43:11;1.92;;;1.20;;
67585;SDS011;55785;47.946;20.540;2022-07-11T03:45:37;2.47;;;1.10;;
67585;SDS011;55785;47.946;20.540;2022-07-11T03:48:02;4.38;;;1.00;;
67585;SDS011;55785;47.946;20.540;2022-07-11T03:50:28;2.72;;;1.10;;
67585;SDS011;55785;47.946;20.540;2022-07-11T03:52:54;1.88;;;1.00;;
67585;SDS011;55785;47.946;20.540;2022-07-11T03:55:19;1.83;;;1.20;;
67585;SDS011;55785;47.946;20.540;2022-07-11T03:57:44;1.40;;;1.10;;
67585;SDS011;55785;47.946;20.540;2022-07-11T04:00:10;1.73;;;1.20;;
67585;SDS011;55785;47.946;20.540;2022-07-11T04:02:35;1.20;;;1.10;;
67585;SDS011;55785;47.946;20.540;2022-07-11T04:05:01;1.20;;;1.10;;
67585;SDS011;55785;47.946;20.540;2022-07-11T04:07:27;1.17;;;1.08;;
67585;SDS011;55785;47.946;20.540;2022-07-11T04:09:53;1.65;;;1.10;;
67585;SDS011;55785;47.946;20.540;2022-07-11T04:12:18;1.85;;;1.20;;
67585;SDS011;55785;47.946;20.540;2022-07-11T04:14:44;1.90;;;1.20;;
67585;SDS011;55785;47.946;20.540;2022-07-11T04:17:09;1.17;;;1.08;;
67585;SDS011;55785;47.946;20.540;2022-07-11T04:19:34;1.10;;;1.00;;
67585;SDS011;55785;47.946;20.540;2022-07-11T04:22:00;2.33;;;1.00;;
67585;SDS011;55785;47.946;20.540;2022-07-11T04:24:25;1.83;;;1.00;;
67585;SDS011;55785;47.946;20.540;2022-07-11T04:26:51;1.13;;;1.00;;
67585;SDS011;55785;47.946;20.540;2022-07-11T04:29:16;1.60;;;1.02;;
67585;SDS011;55785;47.946;20.540;2022-07-11T04:31:41;3.47;;;1.05;;
67585;SDS011;55785;47.946;20.540;2022-07-11T04:34:07;1.33;;;1.00;;
67585;SDS011;55785;47.946;20.540;2022-07-11T04:36:32;1.10;;;1.00;;
67585;SDS011;55785;47.946;20.540;2022-07-11T04:38:57;2.85;;;1.10;;
67585;SDS011;55785;47.946;20.540;2022-07-11T04:41:22;1.60;;;0.90;;
67585;SDS011;55785;47.946;20.540;2022-07-11T04:43:48;1.90;;;0.93;;
67585;SDS011;55785;47.946;20.540;2022-07-11T04:46:13;1.70;;;1.10;;
67585;SDS011;55785;47.946;20.540;2022-07-11T04:48:38;1.73;;;1.20;;
67585;SDS011;55785;47.946;20.540;2022-07-11T04:51:05;1.55;;;0.98;;
67585;SDS011;55785;47.946;20.540;2022-07-11T04:53:33;3.50;;;0.93;;
67585;SDS011;55785;47.946;20.540;2022-07-11T04:55:58;1.05;;;0.95;;
67585;SDS011;55785;47.946;20.540;2022-07-11T04:58:24;3.10;;;1.17;;
67585;SDS011;55785;47.946;20.540;2022-07-11T05:00:49;3.53;;;1.00;;
67585;SDS011;55785;47.946;20.540;2022-07-11T05:03:14;2.83;;;0.98;;
67585;SDS011;55785;47.946;20.540;2022-07-11T05:05:40;2.75;;;1.20;;
67585;SDS011;55785;47.946;20.540;2022-07-11T05:08:05;1.60;;;1.02;;
67585;SDS011;55785;47.946;20.540;2022-07-11T05:10:31;1.63;;;1.05;;
67585;SDS011;55785;47.946;20.540;2022-07-11T05:12:56;3.40;;;1.10;;
67585;SDS011;55785;47.946;20.540;2022-07-11T05:15:22;1.30;;;1.00;;
67585;SDS011;55785;47.946;20.540;2022-07-11T05:17:47;2.38;;;0.98;;
67585;SDS011;55785;47.946;20.540;2022-07-11T05:20:12;1.60;;;1.08;;
67585;SDS011;55785;47.946;20.540;2022-07-11T05:22:38;0.73;;;0.68;;
67585;SDS011;55785;47.946;20.540;2022-07-11T05:25:03;3.03;;;0.85;;
67585;SDS011;55785;47.946;20.540;2022-07-11T05:27:29;1.77;;;0.88;;
67585;SDS011;55785;47.946;20.540;2022-07-11T05:29:54;1.13;;;0.82;;
67585;SDS011;55785;47.946;20.540;2022-07-11T05:32:19;1.10;;;0.80;;
67585;SDS011;55785;47.946;20.540;2022-07-11T05:34:45;1.80;;;1.20;;
67585;SDS011;55785;47.946;20.540;2022-07-11T05:37:10;1.77;;;1.00;;
67585;SDS011;55785;47.946;20.540;2022-07-11T05:39:35;0.88;;;0.80;;
67585;SDS011;55785;47.946;20.540;2022-07-11T05:42:01;1.90;;;0.90;;
67585;SDS011;55785;47.946;20.540;2022-07-11T05:44:26;1.15;;;0.90;;
67585;SDS011;55785;47.946;20.540;2022-07-11T05:46:51;2.25;;;0.93;;
67585;SDS011;55785;47.946;20.540;2022-07-11T05:49:16;1.95;;;1.05;;
67585;SDS011;55785;47.946;20.540;2022-07-11T05:51:42;1.48;;;0.80;;
67585;SDS011;55785;47.946;20.540;2022-07-11T05:54:07;1.08;;;0.73;;
67585;SDS011;55785;47.946;20.540;2022-07-11T05:56:32;1.33;;;0.80;;
67585;SDS011;55785;47.946;20.540;2022-07-11T05:58:58;1.33;;;0.60;;
67585;SDS011;55785;47.946;20.540;2022-07-11T06:01:23;0.80;;;0.50;;
67585;SDS011;55785;47.946;20.540;2022-07-11T06:03:49;1.17;;;0.50;;
67585;SDS011;55785;47.946;20.540;2022-07-11T06:06:14;1.45;;;0.60;;
67585;SDS011;55785;47.946;20.540;2022-07-11T06:08:40;0.50;;;0.45;;
67585;SDS011;55785;47.946;20.540;2022-07-11T06:11:05;1.45;;;0.50;;
67585;SDS011;55785;47.946;20.540;2022-07-11T06:13:31;0.43;;;0.32;;
67585;SDS011;55785;47.946;20.540;2022-07-11T06:15:56;1.42;;;0.40;;
67585;SDS011;55785;47.946;20.540;2022-07-11T06:18:21;0.50;;;0.40;;
67585;SDS011;55785;47.946;20.540;2022-07-11T06:20:47;0.63;;;0.50;;
67585;SDS011;55785;47.946;20.540;2022-07-11T06:23:12;1.17;;;0.50;;
67585;SDS011;55785;47.946;20.540;2022-07-11T06:25:37;0.50;;;0.50;;
67585;SDS011;55785;47.946;20.540;2022-07-11T06:28:03;1.85;;;0.50;;
67585;SDS011;55785;47.946;20.540;2022-07-11T06:30:29;1.20;;;0.50;;
67585;SDS011;55785;47.946;20.540;2022-07-11T06:32:54;0.47;;;0.40;;
67585;SDS011;55785;47.946;20.540;2022-07-11T06:35:19;1.23;;;0.70;;
67585;SDS011;55785;47.946;20.540;2022-07-11T06:37:44;0.57;;;0.50;;
67585;SDS011;55785;47.946;20.540;2022-07-11T06:40:10;1.75;;;0.55;;
67585;SDS011;55785;47.946;20.540;2022-07-11T06:42:36;0.82;;;0.47;;
67585;SDS011;55785;47.946;20.540;2022-07-11T06:45:01;1.35;;;0.60;;
67585;SDS011;55785;47.946;20.540;2022-07-11T06:47:26;0.70;;;0.50;;
67585;SDS011;55785;47.946;20.540;2022-07-11T06:49:52;1.15;;;0.60;;
67585;SDS011;55785;47.946;20.540;2022-07-11T06:52:17;0.52;;;0.45;;
67585;SDS011;55785;47.946;20.540;2022-07-11T06:54:42;0.68;;;0.50;;
67585;SDS011;55785;47.946;20.540;2022-07-11T06:57:08;0.55;;;0.40;;
67585;SDS011;55785;47.946;20.540;2022-07-11T06:59:33;0.40;;;0.40;;
67585;SDS011;55785;47.946;20.540;2022-07-11T07:01:58;1.30;;;0.57;;
67585;SDS011;55785;47.946;20.540;2022-07-11T07:04:24;0.60;;;0.47;;
67585;SDS011;55785;47.946;20.540;2022-07-11T07:06:49;1.05;;;0.60;;
67585;SDS011;55785;47.946;20.540;2022-07-11T07:09:15;0.90;;;0.50;;
67585;SDS011;55785;47.946;20.540;2022-07-11T07:11:40;1.52;;;0.50;;
67585;SDS011;55785;47.946;20.540;2022-07-11T07:14:05;0.55;;;0.50;;
67585;SDS011;55785;47.946;20.540;2022-07-11T07:16:31;0.40;;;0.40;;
67585;SDS011;55785;47.946;20.540;2022-07-11T07:18:56;2.13;;;0.60;;
67585;SDS011;55785;47.946;20.540;2022-07-11T07:21:21;0.73;;;0.57;;
67585;SDS011;55785;47.946;20.540;2022-07-11T07:23:46;1.63;;;0.60;;
67585;SDS011;55785;47.946;20.540;2022-07-11T07:26:12;1.05;;;0.60;;
67585;SDS011;55785;47.946;20.540;2022-07-11T07:28:37;4.90;;;0.90;;
67585;SDS011;55785;47.946;20.540;2022-07-11T07:31:02;1.95;;;0.60;;
67585;SDS011;55785;47.946;20.540;2022-07-11T07:33:28;1.25;;;0.70;;
67585;SDS011;55785;47.946;20.540;2022-07-11T07:35:53;0.63;;;0.52;;
67585;SDS011;55785;47.946;20.540;2022-07-11T07:38:18;0.95;;;0.47;;
67585;SDS011;55785;47.946;20.540;2022-07-11T07:40:44;0.80;;;0.50;;
67585;SDS011;55785;47.946;20.540;2022-07-11T07:43:09;0.55;;;0.47;;
67585;SDS011;55785;47.946;20.540;2022-07-11T07:45:35;0.52;;;0.43;;
67585;SDS011;55785;47.946;20.540;2022-07-11T07:48:00;0.75;;;0.50;;
67585;SDS011;55785;47.946;20.540;2022-07-11T07:50:25;1.10;;;0.50;;
67585;SDS011;55785;47.946;20.540;2022-07-11T07:52:51;0.68;;;0.50;;
67585;SDS011;55785;47.946;20.540;2022-07-11T07:55:16;1.30;;;0.50;;
67585;SDS011;55785;47.946;20.540;2022-07-11T07:57:42;1.58;;;0.43;;
67585;SDS011;55785;47.946;20.540;2022-07-11T08:00:07;0.68;;;0.50;;
67585;SDS011;55785;47.946;20.540;2022-07-11T08:02:33;0.80;;;0.60;;
67585;SDS011;55785;47.946;20.540;2022-07-11T08:05:01;3.40;;;0.60;;
67585;SDS011;55785;47.946;20.540;2022-07-11T08:07:27;0.70;;;0.50;;
67585;SDS011;55785;47.946;20.540;2022-07-11T08:09:52;0.95;;;0.50;;
67585;SDS011;55785;47.946;20.540;2022-07-11T08:12:18;0.93;;;0.50;;
67585;SDS011;55785;47.946;20.540;2022-07-11T08:14:43;0.93;;;0.60;;
67585;SDS011;55785;47.946;20.540;2022-07-11T08:17:08;0.88;;;0.60;;
67585;SDS011;55785;47.946;20.540;2022-07-11T08:19:34;1.45;;;0.60;;
67585;SDS011;55785;47.946;20.540;2022-07-11T08:21:59;0.90;;;0.60;;
67585;SDS011;55785;47.946;20.540;2022-07-11T08:24:24;0.88;;;0.40;;
67585;SDS011;55785;47.946;20.540;2022-07-11T08:26:49;0.60;;;0.50;;
67585;SDS011;55785;47.946;20.540;2022-07-11T08:29:15;2.30;;;0.98;;
67585;SDS011;55785;47.946;20.540;2022-07-11T08:31:40;1.67;;;0.60;;
67585;SDS011;55785;47.946;20.540;2022-07-11T08:34:05;0.93;;;0.73;;
67585;SDS011;55785;47.946;20.540;2022-07-11T08:36:31;0.70;;;0.40;;
67585;SDS011;55785;47.946;20.540;2022-07-11T08:38:56;1.10;;;0.60;;
67585;SDS011;55785;47.946;20.540;2022-07-11T08:41:21;0.88;;;0.57;;
67585;SDS011;55785;47.946;20.540;2022-07-11T08:43:47;1.15;;;0.50;;
67585;SDS011;55785;47.946;20.540;2022-07-11T08:46:14;0.77;;;0.55;;
67585;SDS011;55785;47.946;20.540;2022-07-11T08:48:39;0.60;;;0.60;;
67585;SDS011;55785;47.946;20.540;2022-07-11T08:51:06;2.03;;;0.50;;
67585;SDS011;55785;47.946;20.540;2022-07-11T08:53:32;1.35;;;0.60;;
67585;SDS011;55785;47.946;20.540;2022-07-11T08:55:57;1.20;;;0.68;;
67585;SDS011;55785;47.946;20.540;2022-07-11T08:58:23;1.65;;;0.50;;
67585;SDS011;55785;47.946;20.540;2022-07-11T09:00:49;0.80;;;0.40;;
67585;SDS011;55785;47.946;20.540;2022-07-11T09:03:15;1.08;;;0.50;;
67585;SDS011;55785;47.946;20.540;2022-07-11T09:05:43;1.17;;;0.50;;
67585;SDS011;55785;47.946;20.540;2022-07-11T09:08:10;0.98;;;0.40;;
67585;SDS011;55785;47.946;20.540;2022-07-11T09:10:38;0.98;;;0.47;;
67585;SDS011;55785;47.946;20.540;2022-07-11T09:13:05;1.13;;;0.50;;
67585;SDS011;55785;47.946;20.540;2022-07-11T09:15:31;1.65;;;0.55;;
67585;SDS011;55785;47.946;20.540;2022-07-11T09:18:02;2.83;;;0.60;;
67585;SDS011;55785;47.946;20.540;2022-07-11T09:20:28;1.13;;;0.57;;
67585;SDS011;55785;47.946;20.540;2022-07-11T09:23:20;0.50;;;0.50;;
67585;SDS011;55785;47.946;20.540;2022-07-11T09:25:46;1.50;;;0.60;;
67585;SDS011;55785;47.946;20.540;2022-07-11T09:28:11;1.00;;;0.90;;
67585;SDS011;55785;47.946;20.540;2022-07-11T09:30:37;1.05;;;0.50;;
67585;SDS011;55785;47.946;20.540;2022-07-11T09:33:04;0.55;;;0.50;;
67585;SDS011;55785;47.946;20.540;2022-07-11T09:35:34;2.50;;;0.47;;
67585;SDS011;55785;47.946;20.540;2022-07-11T09:38:13;1.25;;;0.60;;
67585;SDS011;55785;47.946;20.540;2022-07-11T09:40:42;1.30;;;0.60;;
67585;SDS011;55785;47.946;20.540;2022-07-11T09:43:09;0.63;;;0.55;;
67585;SDS011;55785;47.946;20.540;2022-07-11T09:45:34;0.52;;;0.40;;
67585;SDS011;55785;47.946;20.540;2022-07-11T09:48:08;1.23;;;0.40;;
67585;SDS011;55785;47.946;20.540;2022-07-11T09:50:34;0.75;;;0.50;;
67585;SDS011;55785;47.946;20.540;2022-07-11T09:53:12;1.48;;;0.40;;
67585;SDS011;55785;47.946;20.540;2022-07-11T09:55:39;0.65;;;0.50;;
67585;SDS011;55785;47.946;20.540;2022-07-11T09:58:09;0.73;;;0.60;;
67585;SDS011;55785;47.946;20.540;2022-07-11T10:00:36;1.77;;;0.50;;
67585;SDS011;55785;47.946;20.540;2022-07-11T10:03:03;0.40;;;0.40;;
67585;SDS011;55785;47.946;20.540;2022-07-11T10:05:30;0.63;;;0.50;;
67585;SDS011;55785;47.946;20.540;2022-07-11T10:07:55;0.80;;;0.50;;
67585;SDS011;55785;47.946;20.540;2022-07-11T10:10:20;1.98;;;0.60;;
67585;SDS011;55785;47.946;20.540;2022-07-11T10:12:46;2.08;;;0.50;;
67585;SDS011;55785;47.946;20.540;2022-07-11T10:15:14;0.50;;;0.50;;
67585;SDS011;55785;47.946;20.540;2022-07-11T10:23:05;0.63;;;0.50;;
67585;SDS011;55785;47.946;20.540;2022-07-11T10:25:41;0.82;;;0.60;;
67585;SDS011;55785;47.946;20.540;2022-07-11T10:30:47;1.23;;;0.95;;
67585;SDS011;55785;47.946;20.540;2022-07-11T10:33:16;2.03;;;0.50;;
67585;SDS011;55785;47.946;20.540;2022-07-11T10:35:43;0.45;;;0.45;;
67585;SDS011;55785;47.946;20.540;2022-07-11T10:38:10;0.45;;;0.45;;
67585;SDS011;55785;47.946;20.540;2022-07-11T10:40:43;0.73;;;0.43;;
67585;SDS011;55785;47.946;20.540;2022-07-11T10:43:14;0.73;;;0.47;;
67585;SDS011;55785;47.946;20.540;2022-07-11T10:48:28;1.00;;;0.55;;
67585;SDS011;55785;47.946;20.540;2022-07-11T10:53:55;0.68;;;0.40;;
67585;SDS011;55785;47.946;20.540;2022-07-11T10:59:21;0.80;;;0.40;;
67585;SDS011;55785;47.946;20.540;2022-07-11T11:07:29;0.85;;;0.38;;
67585;SDS011;55785;47.946;20.540;2022-07-11T11:09:58;0.75;;;0.30;;
67585;SDS011;55785;47.946;20.540;2022-07-11T11:23:29;0.43;;;0.40;;
67585;SDS011;55785;47.946;20.540;2022-07-11T11:28:31;0.55;;;0.55;;
67585;SDS011;55785;47.946;20.540;2022-07-11T11:30:57;0.57;;;0.40;;
67585;SDS011;55785;47.946;20.540;2022-07-11T11:33:31;0.38;;;0.30;;
67585;SDS011;55785;47.946;20.540;2022-07-11T11:36:06;0.35;;;0.35;;
67585;SDS011;55785;47.946;20.540;2022-07-11T11:38:33;0.67;;;0.40;;
67585;SDS011;55785;47.946;20.540;2022-07-11T11:41:00;0.57;;;0.40;;
67585;SDS011;55785;47.946;20.540;2022-07-11T11:43:26;0.75;;;0.60;;
67585;SDS011;55785;47.946;20.540;2022-07-11T11:45:52;0.68;;;0.50;;
67585;SDS011;55785;47.946;20.540;2022-07-11T11:48:37;0.73;;;0.43;;
67585;SDS011;55785;47.946;20.540;2022-07-11T11:51:14;0.20;;;0.20;;
67585;SDS011;55785;47.946;20.540;2022-07-11T11:56:16;0.63;;;0.32;;
67585;SDS011;55785;47.946;20.540;2022-07-11T11:58:45;0.95;;;0.60;;
67585;SDS011;55785;47.946;20.540;2022-07-11T12:01:12;0.40;;;0.40;;
67585;SDS011;55785;47.946;20.540;2022-07-11T12:03:47;1.08;;;0.55;;
67585;SDS011;55785;47.946;20.540;2022-07-11T12:06:16;1.90;;;0.50;;
67585;SDS011;55785;47.946;20.540;2022-07-11T12:09:01;3.60;;;0.70;;
67585;SDS011;55785;47.946;20.540;2022-07-11T12:11:31;0.80;;;0.50;;
67585;SDS011;55785;47.946;20.540;2022-07-11T12:13:57;1.08;;;0.60;;
67585;SDS011;55785;47.946;20.540;2022-07-11T12:16:22;0.90;;;0.50;;
67585;SDS011;55785;47.946;20.540;2022-07-11T12:18:48;1.08;;;0.70;;
67585;SDS011;55785;47.946;20.540;2022-07-11T12:21:16;0.60;;;0.60;;
67585;SDS011;55785;47.946;20.540;2022-07-11T12:23:42;1.05;;;0.65;;
67585;SDS011;55785;47.946;20.540;2022-07-11T12:26:07;1.00;;;0.60;;
67585;SDS011;55785;47.946;20.540;2022-07-11T12:28:33;0.70;;;0.50;;
67585;SDS011;55785;47.946;20.540;2022-07-11T12:30:58;0.82;;;0.55;;
67585;SDS011;55785;47.946;20.540;2022-07-11T12:33:23;1.27;;;0.55;;
67585;SDS011;55785;47.946;20.540;2022-07-11T12:35:53;1.70;;;0.60;;
67585;SDS011;55785;47.946;20.540;2022-07-11T12:38:26;0.55;;;0.50;;
67585;SDS011;55785;47.946;20.540;2022-07-11T12:41:11;0.82;;;0.50;;
67585;SDS011;55785;47.946;20.540;2022-07-11T12:43:46;1.35;;;0.70;;
67585;SDS011;55785;47.946;20.540;2022-07-11T12:46:13;1.33;;;0.63;;
67585;SDS011;55785;47.946;20.540;2022-07-11T12:48:38;1.45;;;0.60;;
67585;SDS011;55785;47.946;20.540;2022-07-11T12:51:04;0.40;;;0.38;;
67585;SDS011;55785;47.946;20.540;2022-07-11T12:53:29;0.65;;;0.50;;
67585;SDS011;55785;47.946;20.540;2022-07-11T12:55:54;1.10;;;0.40;;
67585;SDS011;55785;47.946;20.540;2022-07-11T12:58:20;2.15;;;0.75;;
67585;SDS011;55785;47.946;20.540;2022-07-11T13:00:55;1.05;;;0.50;;
67585;SDS011;55785;47.946;20.540;2022-07-11T13:03:29;2.47;;;0.60;;
67585;SDS011;55785;47.946;20.540;2022-07-11T13:05:55;2.13;;;0.60;;
67585;SDS011;55785;47.946;20.540;2022-07-11T13:08:22;1.75;;;0.50;;
67585;SDS011;55785;47.946;20.540;2022-07-11T13:10:50;2.03;;;0.52;;
67585;SDS011;55785;47.946;20.540;2022-07-11T13:13:16;0.95;;;0.63;;
67585;SDS011;55785;47.946;20.540;2022-07-11T13:15:42;0.73;;;0.38;;
67585;SDS011;55785;47.946;20.540;2022-07-11T13:18:07;0.68;;;0.50;;
67585;SDS011;55785;47.946;20.540;2022-07-11T13:20:32;1.60;;;0.60;;
67585;SDS011;55785;47.946;20.540;2022-07-11T13:22:58;0.88;;;0.50;;
67585;SDS011;55785;47.946;20.540;2022-07-11T13:25:24;0.95;;;0.57;;
67585;SDS011;55785;47.946;20.540;2022-07-11T13:27:51;2.17;;;0.70;;
67585;SDS011;55785;47.946;20.540;2022-07-11T13:30:18;3.47;;;0.60;;
67585;SDS011;55785;47.946;20.540;2022-07-11T13:32:44;1.88;;;0.65;;
67585;SDS011;55785;47.946;20.540;2022-07-11T13:35:10;2.70;;;0.60;;
67585;SDS011;55785;47.946;20.540;2022-07-11T13:37:36;1.83;;;0.60;;
67585;SDS011;55785;47.946;20.540;2022-07-11T13:40:03;1.75;;;0.60;;
67585;SDS011;55785;47.946;20.540;2022-07-11T13:42:29;1.80;;;0.88;;
67585;SDS011;55785;47.946;20.540;2022-07-11T13:44:54;0.60;;;0.30;;
67585;SDS011;55785;47.946;20.540;2022-07-11T13:47:20;1.25;;;0.70;;
67585;SDS011;55785;47.946;20.540;2022-07-11T13:49:45;0.70;;;0.50;;
67585;SDS011;55785;47.946;20.540;2022-07-11T13:52:10;0.98;;;0.60;;
67585;SDS011;55785;47.946;20.540;2022-07-11T13:54:35;0.60;;;0.47;;
67585;SDS011;55785;47.946;20.540;2022-07-11T13:57:01;1.23;;;0.60;;
67585;SDS011;55785;47.946;20.540;2022-07-11T13:59:26;1.73;;;0.50;;
67585;SDS011;55785;47.946;20.540;2022-07-11T14:01:51;1.55;;;0.70;;
67585;SDS011;55785;47.946;20.540;2022-07-11T14:04:17;2.05;;;0.80;;
67585;SDS011;55785;47.946;20.540;2022-07-11T14:06:42;2.38;;;0.60;;
67585;SDS011;55785;47.946;20.540;2022-07-11T14:09:07;0.88;;;0.50;;
67585;SDS011;55785;47.946;20.540;2022-07-11T14:11:33;1.17;;;0.73;;
67585;SDS011;55785;47.946;20.540;2022-07-11T14:13:58;0.88;;;0.43;;
67585;SDS011;55785;47.946;20.540;2022-07-11T14:16:24;3.85;;;0.60;;
67585;SDS011;55785;47.946;20.540;2022-07-11T14:18:49;1.17;;;0.50;;
67585;SDS011;55785;47.946;20.540;2022-07-11T14:21:14;1.65;;;0.60;;
67585;SDS011;55785;47.946;20.540;2022-07-11T14:23:40;0.70;;;0.60;;
67585;SDS011;55785;47.946;20.540;2022-07-11T14:26:05;1.35;;;0.60;;
67585;SDS011;55785;47.946;20.540;2022-07-11T14:28:31;2.28;;;0.60;;
67585;SDS011;55785;47.946;20.540;2022-07-11T14:30:56;4.13;;;0.55;;
67585;SDS011;55785;47.946;20.540;2022-07-11T14:33:21;0.90;;;0.50;;
67585;SDS011;55785;47.946;20.540;2022-07-11T14:35:47;1.17;;;0.60;;
67585;SDS011;55785;47.946;20.540;2022-07-11T14:38:12;2.45;;;0.90;;
67585;SDS011;55785;47.946;20.540;2022-07-11T14:40:37;0.88;;;0.60;;
67585;SDS011;55785;47.946;20.540;2022-07-11T14:43:02;2.58;;;0.90;;
67585;SDS011;55785;47.946;20.540;2022-07-11T14:45:28;2.60;;;0.55;;
67585;SDS011;55785;47.946;20.540;2022-07-11T14:47:53;2.85;;;0.55;;
67585;SDS011;55785;47.946;20.540;2022-07-11T14:50:18;1.85;;;0.57;;
67585;SDS011;55785;47.946;20.540;2022-07-11T14:52:44;1.27;;;0.70;;
67585;SDS011;55785;47.946;20.540;2022-07-11T14:55:09;0.88;;;0.50;;
67585;SDS011;55785;47.946;20.540;2022-07-11T14:57:34;1.35;;;0.60;;
67585;SDS011;55785;47.946;20.540;2022-07-11T15:00:00;2.35;;;0.68;;
67585;SDS011;55785;47.946;20.540;2022-07-11T15:02:25;1.33;;;0.60;;
67585;SDS011;55785;47.946;20.540;2022-07-11T15:04:51;1.63;;;0.50;;
67585;SDS011;55785;47.946;20.540;2022-07-11T15:07:16;3.95;;;0.60;;